Time;durP1;ratioP1;P1;durP2;ratioP2;P2;SDS_P1;SDS_P2;PMS_P1;PMS_P2;Temp;Humidity;BMP_temperature;BMP_pressure;BME280_temperature;BME280_humidity;BME280_pressure;Samples;Min_cycle;Max_cycle;Signal;HPM_P1;HPM_P2
2023/09/01 00:01:22;;;;;;;9.43;3.40;;;16.00;99.90;;;;;;5055405;28;20456;-86
2023/09/01 00:03:51;;;;;;;7.70;3.23;;;16.00;99.90;;;;;;5055026;28;20477;-86
2023/09/01 00:06:18;;;;;;;4.93;4.23;;;16.00;99.90;;;;;;5054894;28;20963;-86
2023/09/01 00:08:46;;;;;;;5.67;3.30;;;16.00;99.90;;;;;;5055193;28;20464;-87
2023/09/01 00:11:13;;;;;;;4.43;3.17;;;16.00;99.90;;;;;;5055228;28;20857;-85
2023/09/01 00:13:41;;;;;;;3.90;2.83;;;16.00;99.90;;;;;;5054987;28;20963;-86
2023/09/01 00:16:08;;;;;;;5.97;3.73;;;16.00;99.90;;;;;;5055110;28;20520;-86
2023/09/01 00:18:36;;;;;;;4.90;3.37;;;16.00;99.90;;;;;;5055103;28;20437;-86
2023/09/01 00:21:04;;;;;;;4.60;3.17;;;16.00;99.90;;;;;;5054842;28;20441;-86
2023/09/01 00:23:31;;;;;;;5.10;3.73;;;16.00;99.90;;;;;;5054972;28;20544;-86
2023/09/01 00:26:01;;;;;;;4.47;2.90;;;16.00;99.90;;;;;;5054820;28;20471;-85
2023/09/01 00:28:28;;;;;;;4.83;3.03;;;16.00;99.90;;;;;;5054876;28;20476;-86
2023/09/01 00:30:57;;;;;;;4.90;3.77;;;16.00;99.90;;;;;;5054388;28;20512;-85
2023/09/01 00:33:25;;;;;;;6.30;3.23;;;16.00;99.90;;;;;;5054737;28;20794;-86
2023/09/01 00:35:56;;;;;;;6.47;3.20;;;16.00;99.90;;;;;;5054338;28;20946;-87
2023/09/01 00:38:24;;;;;;;6.60;3.40;;;16.00;99.90;;;;;;5054302;28;20418;-86
2023/09/01 00:40:51;;;;;;;8.93;3.23;;;15.90;99.90;;;;;;5053484;28;20441;-87
2023/09/01 00:43:20;;;;;;;4.10;3.10;;;15.90;99.90;;;;;;5054573;28;20465;-86
2023/09/01 00:45:50;;;;;;;5.13;3.07;;;15.90;99.90;;;;;;5054589;28;21010;-86
2023/09/01 00:48:17;;;;;;;6.10;3.83;;;15.90;99.90;;;;;;5054610;28;20425;-87
2023/09/01 00:50:47;;;;;;;5.20;3.17;;;15.90;99.90;;;;;;5053968;28;20561;-87
2023/09/01 00:53:14;;;;;;;10.80;3.03;;;15.90;99.90;;;;;;5054114;28;20512;-86
2023/09/01 00:55:41;;;;;;;4.80;3.20;;;15.90;99.90;;;;;;5053986;28;20465;-86
2023/09/01 00:58:09;;;;;;;5.20;3.23;;;15.90;99.90;;;;;;5054028;28;20465;-86
2023/09/01 01:00:37;;;;;;;5.13;3.97;;;15.80;99.90;;;;;;5054217;28;20433;-87
2023/09/01 01:03:06;;;;;;;6.73;3.80;;;15.80;99.90;;;;;;5054193;28;20457;-87
2023/09/01 01:05:51;;;;;;;4.80;3.47;;;15.80;99.90;;;;;;5054232;28;20461;-87
2023/09/01 01:08:27;;;;;;;5.30;3.60;;;15.70;99.90;;;;;;5054186;28;20552;-86
2023/09/01 01:11:01;;;;;;;5.67;3.80;;;15.70;99.90;;;;;;5053733;28;21053;-86
2023/09/01 01:13:36;;;;;;;6.07;3.77;;;15.70;99.90;;;;;;5053756;28;20906;-87
2023/09/01 01:16:05;;;;;;;6.17;3.53;;;15.70;99.90;;;;;;5054056;28;20764;-86
2023/09/01 01:18:36;;;;;;;4.43;3.57;;;15.70;99.90;;;;;;5053442;28;20488;-86
2023/09/01 01:21:08;;;;;;;4.80;3.80;;;15.70;99.90;;;;;;5053486;28;20512;-86
2023/09/01 01:23:38;;;;;;;5.67;3.70;;;15.70;99.90;;;;;;5053900;28;20449;-87
2023/09/01 01:26:05;;;;;;;5.73;4.37;;;15.70;99.90;;;;;;5053756;28;20781;-87
2023/09/01 01:28:33;;;;;;;6.50;3.27;;;15.70;99.90;;;;;;5053800;28;20520;-87
2023/09/01 01:31:00;;;;;;;7.10;4.00;;;15.70;99.90;;;;;;5053398;28;20469;-86
2023/09/01 01:33:38;;;;;;;5.90;3.70;;;15.70;99.90;;;;;;5053678;28;20512;-86
2023/09/01 01:36:14;;;;;;;4.70;3.70;;;15.70;99.90;;;;;;5053644;28;20453;-87
2023/09/01 01:38:45;;;;;;;6.30;3.53;;;15.60;99.90;;;;;;5053704;28;20508;-86
2023/09/01 01:41:19;;;;;;;5.73;3.60;;;15.70;99.90;;;;;;5053503;28;20989;-86
2023/09/01 01:43:50;;;;;;;5.03;3.37;;;15.60;99.90;;;;;;5053595;28;20512;-86
2023/09/01 01:46:18;;;;;;;5.73;3.70;;;15.70;99.90;;;;;;5053572;28;20500;-86
2023/09/01 01:48:49;;;;;;;5.47;3.80;;;15.70;99.90;;;;;;5053455;28;20430;-86
2023/09/01 01:51:16;;;;;;;7.20;3.70;;;15.60;99.90;;;;;;5053346;28;20497;-86
2023/09/01 01:53:45;;;;;;;4.40;3.30;;;15.70;99.90;;;;;;5053185;28;20460;-85
2023/09/01 01:56:13;;;;;;;7.00;4.00;;;15.70;99.90;;;;;;5052967;28;20441;-86
2023/09/01 01:58:41;;;;;;;5.23;3.67;;;15.60;99.90;;;;;;5052770;28;20461;-87
2023/09/01 02:01:08;;;;;;;5.53;4.00;;;15.60;99.90;;;;;;5053369;28;20440;-87
2023/09/01 02:03:36;;;;;;;4.40;3.23;;;15.60;99.90;;;;;;5052974;28;20433;-86
2023/09/01 02:06:03;;;;;;;5.47;3.47;;;15.60;99.90;;;;;;5053177;28;20487;-86
2023/09/01 02:08:30;;;;;;;4.20;3.10;;;15.60;99.90;;;;;;5053252;28;20459;-87
2023/09/01 02:10:58;;;;;;;7.80;3.20;;;15.60;99.90;;;;;;5053391;28;20477;-85
2023/09/01 02:13:25;;;;;;;5.60;3.50;;;15.60;99.90;;;;;;5052896;28;21011;-86
2023/09/01 02:15:53;;;;;;;4.40;2.77;;;15.60;99.90;;;;;;5053447;28;20461;-87
2023/09/01 02:18:20;;;;;;;6.17;4.03;;;15.50;99.90;;;;;;5052899;28;20480;-86
2023/09/01 02:20:47;;;;;;;5.73;3.43;;;15.60;99.90;;;;;;5053130;28;20473;-86
2023/09/01 02:23:17;;;;;;;4.60;3.40;;;15.50;99.90;;;;;;5052848;28;20520;-86
2023/09/01 02:25:44;;;;;;;5.40;3.00;;;15.50;99.90;;;;;;5052768;28;20437;-87
2023/09/01 02:28:13;;;;;;;5.10;3.50;;;15.50;99.90;;;;;;5052704;28;20488;-87
2023/09/01 02:30:46;;;;;;;6.97;3.80;;;15.50;99.90;;;;;;5053005;28;20889;-87
2023/09/01 02:33:14;;;;;;;5.50;3.37;;;15.50;99.90;;;;;;5052725;28;20516;-86
2023/09/01 02:35:44;;;;;;;6.90;3.57;;;15.50;99.90;;;;;;5052875;28;20439;-86
2023/09/01 02:38:12;;;;;;;5.53;3.47;;;15.40;99.90;;;;;;5053104;28;20433;-87
2023/09/01 02:40:40;;;;;;;6.03;4.00;;;15.40;99.90;;;;;;5052994;28;20852;-87
2023/09/01 02:43:07;;;;;;;6.60;4.03;;;15.50;99.90;;;;;;5052568;28;20442;-87
2023/09/01 02:45:35;;;;;;;5.80;3.10;;;15.50;99.90;;;;;;5052611;28;20523;-86
2023/09/01 02:48:02;;;;;;;6.73;3.80;;;15.50;99.90;;;;;;5052493;28;20464;-86
2023/09/01 02:50:32;;;;;;;5.00;3.40;;;15.50;99.90;;;;;;5052749;28;20473;-86
2023/09/01 02:52:59;;;;;;;4.40;2.70;;;15.50;99.90;;;;;;5052584;28;20495;-85
2023/09/01 02:55:26;;;;;;;6.27;3.70;;;15.50;99.90;;;;;;5052873;28;20487;-87
2023/09/01 02:57:53;;;;;;;4.97;2.77;;;15.50;99.90;;;;;;5052329;28;20544;-87
2023/09/01 03:00:21;;;;;;;5.20;3.23;;;15.50;99.90;;;;;;5052897;28;20482;-86
2023/09/01 03:02:51;;;;;;;5.30;4.13;;;15.40;99.90;;;;;;5052766;28;20442;-85
2023/09/01 03:05:18;;;;;;;8.50;4.13;;;15.50;99.90;;;;;;5055497;28;20447;-86
2023/09/01 03:07:45;;;;;;;7.27;3.73;;;15.40;99.90;;;;;;5056420;28;20437;-87
2023/09/01 03:10:13;;;;;;;11.83;6.80;;;15.40;99.90;;;;;;5056044;28;21020;-87
2023/09/01 03:12:40;;;;;;;13.27;6.87;;;15.30;99.90;;;;;;5056176;28;20520;-87
2023/09/01 03:15:09;;;;;;;7.53;4.90;;;15.30;99.90;;;;;;5056077;28;20457;-87
2023/09/01 03:17:36;;;;;;;7.43;4.33;;;15.30;99.90;;;;;;5056295;28;20437;-86
2023/09/01 03:20:08;;;;;;;31.10;15.67;;;15.30;99.90;;;;;;5056314;28;20473;-86
2023/09/01 03:22:35;;;;;;;12.57;7.70;;;15.20;99.90;;;;;;5056336;28;20432;-86
2023/09/01 03:25:02;;;;;;;6.37;3.67;;;15.20;99.90;;;;;;5056372;28;20499;-86
2023/09/01 03:27:30;;;;;;;3.43;2.57;;;15.20;99.90;;;;;;5056086;28;20433;-85
2023/09/01 03:29:57;;;;;;;6.10;3.70;;;15.20;99.90;;;;;;5056085;28;20430;-86
2023/09/01 03:32:24;;;;;;;5.80;3.50;;;15.10;99.90;;;;;;5055810;28;20962;-85
2023/09/01 03:34:51;;;;;;;5.00;2.77;;;15.10;99.90;;;;;;5055902;28;20838;-87
2023/09/01 03:37:20;;;;;;;3.93;3.00;;;15.10;99.90;;;;;;5055904;28;20440;-87
2023/09/01 03:39:47;;;;;;;5.10;3.53;;;15.00;99.90;;;;;;5055876;28;20476;-86
2023/09/01 03:42:14;;;;;;;4.63;3.97;;;14.90;99.90;;;;;;5055886;28;20472;-86
2023/09/01 03:44:41;;;;;;;5.67;3.20;;;14.90;99.90;;;;;;5055702;28;20795;-86
2023/09/01 03:47:09;;;;;;;4.80;3.13;;;14.80;99.90;;;;;;5055743;28;20516;-86
2023/09/01 03:49:41;;;;;;;5.70;3.30;;;14.80;99.90;;;;;;5055303;28;20441;-86
2023/09/01 03:52:08;;;;;;;3.97;2.77;;;14.80;99.90;;;;;;5055296;28;20496;-86
2023/09/01 03:54:36;;;;;;;6.93;3.00;;;14.70;99.90;;;;;;5055579;28;20523;-85
2023/09/01 03:57:04;;;;;;;4.90;2.90;;;14.70;99.90;;;;;;5055637;28;20431;-86
2023/09/01 03:59:30;;;;;;;5.10;2.77;;;14.80;99.90;;;;;;5055566;28;20863;-87
2023/09/01 04:01:58;;;;;;;7.57;3.30;;;14.80;99.90;;;;;;5055323;28;20991;-87
2023/09/01 04:04:25;;;;;;;4.87;3.37;;;14.80;99.90;;;;;;5055086;28;20525;-86
2023/09/01 04:06:52;;;;;;;6.50;3.40;;;14.80;99.90;;;;;;5054993;28;20469;-86
2023/09/01 04:09:19;;;;;;;3.47;2.73;;;14.90;99.90;;;;;;5055109;28;20441;-87
2023/09/01 04:11:48;;;;;;;8.13;3.57;;;14.90;99.90;;;;;;5054952;28;20998;-86
2023/09/01 04:14:15;;;;;;;7.00;4.57;;;14.90;99.90;;;;;;5055258;28;20457;-86
2023/09/01 04:16:42;;;;;;;4.53;3.27;;;14.90;99.90;;;;;;5055145;28;20468;-86
2023/09/01 04:19:09;;;;;;;5.50;3.70;;;14.90;99.90;;;;;;5055154;28;20433;-86
2023/09/01 04:21:36;;;;;;;4.80;3.73;;;14.90;99.90;;;;;;5054671;28;20438;-86
2023/09/01 04:24:04;;;;;;;4.77;3.70;;;14.90;99.90;;;;;;5055087;28;20537;-86
2023/09/01 04:26:31;;;;;;;4.40;3.17;;;14.90;99.90;;;;;;5054703;28;21008;-86
2023/09/01 04:29:00;;;;;;;6.10;2.93;;;14.90;99.90;;;;;;5054684;28;20942;-87
2023/09/01 04:31:28;;;;;;;3.80;2.30;;;14.90;99.90;;;;;;5054569;28;21073;-86
2023/09/01 04:33:55;;;;;;;5.50;3.07;;;14.90;99.90;;;;;;5055147;28;20435;-86
2023/09/01 04:36:23;;;;;;;5.53;2.63;;;14.90;99.90;;;;;;5054430;28;20473;-86
2023/09/01 04:38:53;;;;;;;3.90;2.77;;;14.90;99.90;;;;;;5054403;28;20479;-85
2023/09/01 04:41:20;;;;;;;6.13;3.10;;;14.90;99.90;;;;;;5054750;28;20421;-86
2023/09/01 04:43:47;;;;;;;5.70;3.13;;;14.90;99.90;;;;;;5054459;28;20827;-86
2023/09/01 04:46:16;;;;;;;5.47;3.43;;;15.00;99.90;;;;;;5054491;28;20434;-86
2023/09/01 04:48:43;;;;;;;4.40;2.97;;;15.00;99.90;;;;;;5054264;28;20437;-86
2023/09/01 04:51:11;;;;;;;6.43;3.30;;;15.00;99.90;;;;;;5054066;28;20501;-86
2023/09/01 04:53:38;;;;;;;4.67;2.47;;;15.00;99.90;;;;;;5054256;28;20498;-85
2023/09/01 04:56:07;;;;;;;6.57;3.13;;;15.10;99.90;;;;;;5070998;28;20440;-86
2023/09/01 04:58:34;;;;;;;3.90;3.07;;;15.10;99.90;;;;;;5073917;28;20910;-85
2023/09/01 05:01:01;;;;;;;7.70;2.70;;;15.10;99.90;;;;;;5074070;28;20783;-86
2023/09/01 05:03:29;;;;;;;4.67;3.93;;;15.10;99.90;;;;;;5073076;28;20856;-86
2023/09/01 05:05:57;;;;;;;4.83;3.40;;;15.20;99.90;;;;;;5073744;28;20528;-86
2023/09/01 05:08:24;;;;;;;3.87;2.90;;;15.20;99.90;;;;;;5073517;28;20860;-86
2023/09/01 05:10:52;;;;;;;4.73;3.20;;;15.30;99.90;;;;;;5073326;28;20517;-86
2023/09/01 05:13:22;;;;;;;17.33;4.13;;;15.40;99.90;;;;;;5057723;28;20460;-86
2023/09/01 05:15:49;;;;;;;6.83;3.93;;;15.30;99.60;;;;;;5051397;28;20722;-86
2023/09/01 05:18:16;;;;;;;5.03;3.10;;;15.40;99.60;;;;;;5053182;28;20441;-85
2023/09/01 05:20:47;;;;;;;4.83;3.53;;;15.50;99.60;;;;;;5053549;28;20476;-86
2023/09/01 05:23:14;;;;;;;5.10;3.43;;;15.50;99.70;;;;;;5053669;28;20422;-85
2023/09/01 05:25:41;;;;;;;7.73;4.00;;;15.60;99.90;;;;;;5057160;28;20521;-85
2023/09/01 05:28:08;;;;;;;5.50;3.47;;;15.80;99.90;;;;;;5065020;28;20516;-86
2023/09/01 05:30:39;;;;;;;3.93;2.60;;;15.80;99.90;;;;;;5050889;28;20516;-85
2023/09/01 05:33:06;;;;;;;4.60;2.90;;;15.80;99.90;;;;;;5054776;28;20512;-85
2023/09/01 05:35:33;;;;;;;6.00;2.97;;;15.90;99.90;;;;;;5058093;28;20460;-85
2023/09/01 05:38:01;;;;;;;5.10;2.77;;;16.00;99.90;;;;;;5050496;28;20900;-85
2023/09/01 05:40:28;;;;;;;5.00;2.57;;;16.00;99.90;;;;;;5057375;28;20460;-85
2023/09/01 05:42:55;;;;;;;3.33;2.03;;;16.10;99.90;;;;;;5060457;28;20454;-85
2023/09/01 05:45:22;;;;;;;3.63;2.63;;;16.10;99.50;;;;;;5054568;28;20457;-85
2023/09/01 05:47:49;;;;;;;4.60;2.60;;;16.20;99.40;;;;;;5062099;28;20468;-84
2023/09/01 05:50:18;;;;;;;3.50;2.27;;;16.30;99.30;;;;;;5052753;28;20436;-84
2023/09/01 05:52:45;;;;;;;4.60;2.43;;;16.30;99.80;;;;;;5053136;28;20802;-84
2023/09/01 05:55:13;;;;;;;4.00;2.30;;;16.30;99.30;;;;;;5053217;28;20486;-84
2023/09/01 05:57:41;;;;;;;6.67;3.13;;;16.40;98.50;;;;;;5052674;28;20519;-84
2023/09/01 06:00:09;;;;;;;4.80;2.63;;;16.40;98.30;;;;;;5052810;28;20429;-85
2023/09/01 06:02:40;;;;;;;3.40;2.17;;;16.50;98.50;;;;;;5052731;28;20900;-85
2023/09/01 06:05:08;;;;;;;4.80;3.20;;;16.40;98.60;;;;;;5053150;28;20864;-85
2023/09/01 06:07:37;;;;;;;3.53;2.30;;;16.50;98.70;;;;;;5053061;28;20516;-85
2023/09/01 06:10:04;;;;;;;5.10;3.10;;;16.50;98.60;;;;;;5052645;28;20903;-85
2023/09/01 06:12:32;;;;;;;3.90;2.10;;;16.60;98.20;;;;;;5052996;28;20842;-86
2023/09/01 06:14:59;;;;;;;5.57;2.77;;;16.70;97.70;;;;;;5052676;28;20476;-85
2023/09/01 06:17:27;;;;;;;5.80;2.30;;;16.70;97.90;;;;;;5052682;28;20470;-85
2023/09/01 06:19:54;;;;;;;3.20;2.27;;;16.80;97.80;;;;;;5052897;28;20536;-83
2023/09/01 06:22:21;;;;;;;5.90;2.67;;;16.90;97.80;;;;;;5052581;28;20938;-85
2023/09/01 06:24:48;;;;;;;4.17;2.73;;;16.90;97.80;;;;;;5052833;28;20445;-86
2023/09/01 06:27:16;;;;;;;5.43;2.70;;;16.90;97.30;;;;;;5052912;28;20465;-85
2023/09/01 06:29:44;;;;;;;3.60;2.20;;;17.00;97.50;;;;;;5052605;28;20983;-86
2023/09/01 06:32:11;;;;;;;4.70;2.90;;;17.00;97.80;;;;;;5052809;28;20508;-86
2023/09/01 06:34:39;;;;;;;3.70;2.23;;;17.00;97.80;;;;;;5052380;28;20434;-84
2023/09/01 06:37:06;;;;;;;8.73;3.03;;;17.10;97.90;;;;;;5052553;28;20772;-86
2023/09/01 06:39:33;;;;;;;8.50;2.83;;;17.20;98.20;;;;;;5054559;28;20477;-86
2023/09/01 06:42:00;;;;;;;3.50;2.20;;;17.30;98.30;;;;;;5056401;28;20524;-85
2023/09/01 06:44:27;;;;;;;8.20;2.67;;;17.40;97.60;;;;;;5056950;28;20508;-86
2023/09/01 06:46:55;;;;;;;4.80;2.90;;;17.50;97.60;;;;;;5053088;28;20437;-86
2023/09/01 06:49:22;;;;;;;3.77;1.87;;;17.50;97.80;;;;;;5056537;28;20851;-85
2023/09/01 06:51:49;;;;;;;5.07;2.03;;;17.50;97.70;;;;;;5056357;28;20580;-85
2023/09/01 06:54:16;;;;;;;5.40;2.53;;;17.60;97.40;;;;;;5056174;28;20916;-86
2023/09/01 06:56:43;;;;;;;5.50;2.10;;;17.70;96.90;;;;;;5056507;28;20510;-85
2023/09/01 06:59:10;;;;;;;5.33;3.73;;;17.80;96.50;;;;;;5056223;28;20507;-85
2023/09/01 07:01:38;;;;;;;3.20;2.03;;;17.90;96.40;;;;;;5056317;28;20437;-85
2023/09/01 07:04:07;;;;;;;3.50;1.90;;;18.10;95.90;;;;;;5055950;28;20468;-86
2023/09/01 07:06:34;;;;;;;5.07;2.60;;;18.20;96.10;;;;;;5056217;28;20533;-84
2023/09/01 07:09:01;;;;;;;4.10;2.10;;;18.30;95.80;;;;;;5056263;28;20453;-86
2023/09/01 07:11:28;;;;;;;4.00;2.30;;;18.30;95.90;;;;;;5056056;28;20517;-86
2023/09/01 07:13:55;;;;;;;3.63;1.90;;;18.40;96.10;;;;;;5055553;28;20520;-85
2023/09/01 07:16:23;;;;;;;6.23;2.50;;;18.40;95.90;;;;;;5056082;28;20517;-85
2023/09/01 07:18:50;;;;;;;3.83;2.10;;;18.50;95.60;;;;;;5056334;28;20778;-85
2023/09/01 07:21:19;;;;;;;3.93;2.00;;;18.50;94.90;;;;;;5055551;28;20446;-85
2023/09/01 07:23:48;;;;;;;5.60;2.37;;;18.50;93.80;;;;;;5056205;28;20433;-86
2023/09/01 07:26:15;;;;;;;4.20;2.20;;;18.50;94.30;;;;;;5055984;28;20461;-86
2023/09/01 07:28:42;;;;;;;3.70;2.00;;;18.70;94.00;;;;;;5055512;28;20507;-85
2023/09/01 07:31:12;;;;;;;5.53;2.20;;;18.70;94.10;;;;;;5055489;28;20994;-85
2023/09/01 07:33:41;;;;;;;4.63;2.30;;;18.80;94.50;;;;;;5055475;28;20471;-86
2023/09/01 07:36:09;;;;;;;5.43;2.00;;;19.00;94.20;;;;;;5055752;28;20433;-86
2023/09/01 07:38:38;;;;;;;5.20;3.03;;;19.10;93.70;;;;;;5055434;28;20436;-85
2023/09/01 07:41:06;;;;;;;4.07;2.50;;;19.20;93.40;;;;;;5055362;28;20469;-86
2023/09/01 07:43:33;;;;;;;3.13;1.87;;;19.30;93.00;;;;;;5055775;28;20442;-86
2023/09/01 07:46:00;;;;;;;4.77;2.20;;;19.40;92.50;;;;;;5055325;28;20479;-86
2023/09/01 07:48:28;;;;;;;4.97;2.50;;;19.50;92.70;;;;;;5055306;28;20422;-85
2023/09/01 07:50:55;;;;;;;3.87;2.20;;;19.60;92.50;;;;;;5054559;28;20975;-85
2023/09/01 07:53:22;;;;;;;3.70;2.60;;;19.70;91.70;;;;;;5055037;28;21127;-85
2023/09/01 07:55:51;;;;;;;3.30;2.10;;;19.80;92.00;;;;;;5055295;28;20524;-86
2023/09/01 07:58:19;;;;;;;3.60;1.80;;;19.90;92.00;;;;;;5054979;28;20560;-86
2023/09/01 08:00:46;;;;;;;3.00;2.03;;;20.00;91.90;;;;;;5055126;28;20465;-86
2023/09/01 08:03:13;;;;;;;3.97;2.40;;;20.10;91.70;;;;;;5054963;28;20849;-86
2023/09/01 08:05:40;;;;;;;3.40;1.80;;;20.20;91.60;;;;;;5055387;28;20625;-86
2023/09/01 08:08:07;;;;;;;5.13;2.40;;;20.40;91.60;;;;;;5054698;28;20434;-86
2023/09/01 08:10:39;;;;;;;3.57;2.20;;;20.70;91.40;;;;;;5055088;28;20503;-85
2023/09/01 08:13:08;;;;;;;2.80;1.57;;;21.20;90.40;;;;;;5054773;28;20497;-86
2023/09/01 08:15:35;;;;;;;3.30;1.87;;;21.40;88.50;;;;;;5054356;28;20911;-86
2023/09/01 08:18:02;;;;;;;3.27;1.80;;;21.40;85.50;;;;;;5054478;28;20935;-86
2023/09/01 08:20:30;;;;;;;7.07;2.90;;;21.40;85.30;;;;;;5054090;28;20441;-85
2023/09/01 08:22:56;;;;;;;3.80;1.87;;;21.60;85.30;;;;;;5054710;28;20460;-86
2023/09/01 08:25:23;;;;;;;3.17;1.60;;;21.80;83.40;;;;;;5054399;28;20524;-85
2023/09/01 08:27:51;;;;;;;3.90;2.40;;;22.00;83.50;;;;;;5054422;28;20437;-86
2023/09/01 08:30:19;;;;;;;3.63;1.87;;;22.20;83.10;;;;;;5054874;28;20469;-86
2023/09/01 08:32:47;;;;;;;5.00;2.10;;;22.60;81.80;;;;;;5054621;28;20527;-86
2023/09/01 08:35:14;;;;;;;4.07;2.07;;;23.30;83.70;;;;;;5054549;28;20437;-87
2023/09/01 08:37:43;;;;;;;4.10;1.63;;;24.60;82.20;;;;;;5054331;28;20930;-87
2023/09/01 08:40:11;;;;;;;5.33;1.80;;;26.00;68.80;;;;;;5054246;28;20438;-86
2023/09/01 08:42:45;;;;;;;3.27;1.47;;;27.90;62.50;;;;;;5054420;28;20499;-87
2023/09/01 08:45:12;;;;;;;3.83;1.40;;;29.30;56.00;;;;;;5054553;28;20823;-87
2023/09/01 08:47:45;;;;;;;5.57;2.10;;;30.10;52.40;;;;;;5054282;28;20520;-87
2023/09/01 08:50:12;;;;;;;4.97;2.10;;;31.40;51.80;;;;;;5054403;28;20501;-88
2023/09/01 08:52:41;;;;;;;2.83;1.60;;;32.90;45.90;;;;;;5053858;28;21032;-86
2023/09/01 08:55:09;;;;;;;2.30;1.37;;;33.40;42.80;;;;;;5053937;28;20520;-86
2023/09/01 08:57:37;;;;;;;2.70;1.40;;;35.60;40.10;;;;;;5053806;28;20977;-85
2023/09/01 09:00:07;;;;;;;3.23;1.90;;;39.00;36.40;;;;;;5054436;28;20781;-85
2023/09/01 09:02:34;;;;;;;4.03;1.30;;;41.00;31.30;;;;;;5053497;28;20918;-86
2023/09/01 09:05:03;;;;;;;3.73;2.00;;;42.50;29.50;;;;;;5053689;28;20535;-85
2023/09/01 09:07:30;;;;;;;3.50;1.80;;;44.40;26.30;;;;;;5054103;28;20488;-85
2023/09/01 09:09:59;;;;;;;3.37;1.87;;;45.80;23.80;;;;;;5053976;28;20846;-84
2023/09/01 09:12:37;;;;;;;2.73;1.37;;;46.80;22.80;;;;;;5053914;28;20857;-84
2023/09/01 09:15:06;;;;;;;2.70;1.30;;;48.10;22.00;;;;;;5053563;28;20939;-85
2023/09/01 09:17:42;;;;;;;2.63;1.33;;;49.30;20.00;;;;;;5054021;28;20488;-82
2023/09/01 09:20:11;;;;;;;3.20;1.50;;;50.30;18.80;;;;;;5053404;28;20947;-82
2023/09/01 09:22:52;;;;;;;2.43;1.43;;;50.30;18.40;;;;;;5053776;28;20465;-82
2023/09/01 09:25:26;;;;;;;3.30;1.37;;;50.70;17.70;;;;;;5053793;28;20487;-82
2023/09/01 09:27:53;;;;;;;2.50;1.13;;;51.40;17.60;;;;;;5053639;28;20512;-82
2023/09/01 09:30:21;;;;;;;2.73;1.30;;;51.90;17.30;;;;;;5053924;28;20438;-82
2023/09/01 09:33:00;;;;;;;2.97;1.10;;;51.60;15.80;;;;;;5053373;28;20547;-82
2023/09/01 09:35:28;;;;;;;3.33;1.67;;;51.40;16.60;;;;;;5053175;28;20523;-82
2023/09/01 09:38:02;;;;;;;2.40;1.23;;;51.80;15.20;;;;;;5053574;28;20541;-82
2023/09/01 09:40:30;;;;;;;2.67;1.20;;;51.90;15.20;;;;;;5053486;28;20413;-83
2023/09/01 09:42:59;;;;;;;2.50;1.43;;;52.40;15.00;;;;;;5053378;28;21015;-82
2023/09/01 09:45:32;;;;;;;3.20;1.00;;;52.20;14.90;;;;;;5053366;28;20437;-83
2023/09/01 09:48:05;;;;;;;2.43;1.10;;;50.30;14.50;;;;;;5053379;28;20428;-85
2023/09/01 09:50:37;;;;;;;2.33;1.13;;;48.60;15.20;;;;;;5053337;28;20454;-85
2023/09/01 09:53:05;;;;;;;2.17;0.90;;;46.90;15.60;;;;;;5053580;28;20507;-85
2023/09/01 09:55:40;;;;;;;2.60;1.17;;;44.90;17.10;;;;;;5053480;28;20476;-85
2023/09/01 09:58:12;;;;;;;3.30;1.23;;;43.00;18.50;;;;;;5053068;28;20465;-85
2023/09/01 10:00:50;;;;;;;4.00;1.47;;;41.60;19.70;;;;;;5053338;28;20454;-84
2023/09/01 10:03:24;;;;;;;2.97;1.10;;;41.20;20.00;;;;;;5052990;28;20461;-84
2023/09/01 10:05:54;;;;;;;2.63;1.20;;;41.90;20.40;;;;;;5053185;28;20515;-84
2023/09/01 10:08:23;;;;;;;3.00;1.10;;;42.40;19.40;;;;;;5052771;28;20938;-85
2023/09/01 10:10:50;;;;;;;2.50;0.97;;;41.50;19.60;;;;;;5051841;28;20444;-85
2023/09/01 10:13:19;;;;;;;3.33;0.90;;;40.30;20.00;;;;;;5055269;28;20527;-85
2023/09/01 10:15:47;;;;;;;2.70;1.07;;;39.70;21.80;;;;;;5059547;28;20429;-85
2023/09/01 10:18:16;;;;;;;2.37;1.10;;;40.40;22.30;;;;;;5059715;28;20438;-85
2023/09/01 10:20:44;;;;;;;2.97;0.90;;;42.20;21.00;;;;;;5059236;28;20491;-85
2023/09/01 10:23:18;;;;;;;3.10;1.40;;;43.60;19.10;;;;;;5059668;28;20467;-84
2023/09/01 10:26:17;;;;;;;2.57;1.10;;;44.80;19.20;;;;;;5059993;28;20441;-85
2023/09/01 10:29:01;;;;;;;2.20;1.00;;;46.00;18.30;;;;;;5059455;28;20447;-85
2023/09/01 10:31:36;;;;;;;2.93;1.07;;;46.70;18.20;;;;;;5059653;28;20413;-85
2023/09/01 10:34:18;;;;;;;2.77;1.30;;;47.40;17.40;;;;;;5059724;28;20468;-85
2023/09/01 10:37:07;;;;;;;4.10;1.20;;;47.90;17.30;;;;;;5059520;28;20449;-82
2023/09/01 10:39:37;;;;;;;2.80;1.20;;;48.90;16.70;;;;;;5059262;28;20433;-82
2023/09/01 10:42:07;;;;;;;3.00;1.20;;;50.30;15.40;;;;;;5059005;28;20473;-82
2023/09/01 10:45:09;;;;;;;2.60;1.10;;;50.70;14.70;;;;;;5059097;28;20499;-82
2023/09/01 10:47:52;;;;;;;2.73;1.17;;;49.70;14.70;;;;;;5059821;28;20421;-82
2023/09/01 10:50:28;;;;;;;2.70;1.10;;;48.70;15.50;;;;;;5058924;28;20433;-83
2023/09/01 10:53:30;;;;;;;2.50;1.23;;;47.80;15.50;;;;;;5059459;28;20821;-83
2023/09/01 10:56:09;;;;;;;3.00;1.13;;;46.70;16.10;;;;;;5059413;28;20523;-82
2023/09/01 10:58:40;;;;;;;4.00;1.50;;;45.70;17.00;;;;;;5059130;28;20552;-83
2023/09/01 11:01:31;;;;;;;3.90;1.40;;;45.60;17.60;;;;;;5059353;28;20520;-83
2023/09/01 11:04:34;;;;;;;2.63;1.20;;;45.10;17.60;;;;;;5059217;28;20899;-82
2023/09/01 11:07:09;;;;;;;2.90;1.47;;;44.90;17.30;;;;;;5053928;28;20527;-82
2023/09/01 11:09:57;;;;;;;2.60;1.10;;;44.40;17.90;;;;;;5059266;28;20432;-82
2023/09/01 11:12:29;;;;;;;2.03;0.97;;;44.00;17.50;;;;;;5059166;28;20429;-82
2023/09/01 11:15:01;;;;;;;2.27;0.93;;;44.10;17.60;;;;;;5058835;28;20437;-82
2023/09/01 11:17:43;;;;;;;5.03;1.10;;;44.10;17.30;;;;;;5058849;28;20425;-83
2023/09/01 11:20:11;;;;;;;2.90;1.00;;;43.90;17.70;;;;;;5059164;28;20490;-82
2023/09/01 11:22:51;;;;;;;3.20;1.30;;;43.80;17.50;;;;;;5059179;28;20487;-82
2023/09/01 11:25:24;;;;;;;3.10;1.00;;;43.80;18.60;;;;;;5056345;28;20444;-82
2023/09/01 11:27:53;;;;;;;3.27;1.20;;;43.30;19.00;;;;;;5055614;28;20429;-82
2023/09/01 11:30:22;;;;;;;2.30;1.00;;;42.70;19.90;;;;;;5056040;28;20516;-82
2023/09/01 11:33:11;;;;;;;3.00;1.00;;;42.00;19.90;;;;;;5055504;28;20465;-82
2023/09/01 11:35:43;;;;;;;3.27;1.30;;;41.20;20.10;;;;;;5055769;28;20479;-82
2023/09/01 11:38:18;;;;;;;2.90;0.90;;;40.30;19.90;;;;;;5055798;28;20505;-82
2023/09/01 11:40:47;;;;;;;2.57;1.10;;;39.30;20.70;;;;;;5055791;28;20457;-82
2023/09/01 11:43:16;;;;;;;2.93;1.30;;;38.40;22.00;;;;;;5055721;28;20433;-82
2023/09/01 11:45:51;;;;;;;2.73;1.27;;;37.70;21.90;;;;;;5055144;28;20503;-82
2023/09/01 11:48:23;;;;;;;2.70;1.10;;;37.20;22.30;;;;;;5055382;28;20493;-82
2023/09/01 11:50:55;;;;;;;3.70;1.23;;;36.70;23.50;;;;;;5055276;28;20898;-82
2023/09/01 11:53:28;;;;;;;2.70;1.10;;;36.10;23.60;;;;;;5055451;28;20512;-85
2023/09/01 11:56:01;;;;;;;3.63;1.20;;;35.40;25.20;;;;;;5055722;28;20601;-85
2023/09/01 11:58:46;;;;;;;2.97;1.37;;;34.70;26.20;;;;;;5055053;28;20973;-85
2023/09/01 12:01:15;;;;;;;2.50;1.10;;;34.20;25.90;;;;;;5055459;28;20456;-85
2023/09/01 12:03:51;;;;;;;2.73;1.10;;;33.70;27.70;;;;;;5054967;28;20468;-84
2023/09/01 12:06:24;;;;;;;3.10;1.50;;;33.30;27.20;;;;;;5055268;28;20491;-85
2023/09/01 12:08:56;;;;;;;3.40;1.20;;;33.00;27.80;;;;;;5055400;28;20450;-85
2023/09/01 12:11:27;;;;;;;3.90;1.50;;;32.70;28.10;;;;;;5055240;28;20457;-84
2023/09/01 12:13:56;;;;;;;3.73;1.20;;;32.40;28.30;;;;;;5054861;28;20938;-84
2023/09/01 12:16:24;;;;;;;3.20;1.17;;;32.20;30.00;;;;;;5054827;28;20524;-84
2023/09/01 12:19:04;;;;;;;3.70;1.47;;;32.00;31.50;;;;;;5054539;28;20433;-84
2023/09/01 12:21:31;;;;;;;2.30;0.83;;;32.20;31.00;;;;;;5054610;28;20453;-84
2023/09/01 12:24:06;;;;;;;3.10;1.20;;;32.40;30.60;;;;;;5054992;28;20480;-84
2023/09/01 12:26:34;;;;;;;2.60;1.17;;;32.70;30.00;;;;;;5055099;28;20449;-84
2023/09/01 12:29:02;;;;;;;2.40;1.10;;;32.70;29.30;;;;;;5054541;28;20445;-84
2023/09/01 12:31:29;;;;;;;2.57;1.10;;;32.60;29.40;;;;;;5054551;28;20442;-84
2023/09/01 12:33:56;;;;;;;2.57;1.17;;;32.40;29.50;;;;;;5054673;28;20559;-84
2023/09/01 12:36:32;;;;;;;3.53;1.00;;;32.30;28.50;;;;;;5053703;28;20785;-83
2023/09/01 12:38:59;;;;;;;2.77;1.10;;;32.20;28.40;;;;;;5054839;28;20456;-84
2023/09/01 12:41:26;;;;;;;3.23;1.40;;;32.30;29.20;;;;;;5054697;28;20528;-84
2023/09/01 12:43:54;;;;;;;2.50;1.10;;;32.50;29.50;;;;;;5054592;28;20441;-84
2023/09/01 12:46:22;;;;;;;3.13;0.90;;;32.80;28.70;;;;;;5054593;28;20854;-84
2023/09/01 12:48:49;;;;;;;3.07;1.20;;;32.90;27.90;;;;;;5054417;28;20437;-84
2023/09/01 12:51:16;;;;;;;2.60;1.13;;;32.90;28.40;;;;;;5054196;28;20957;-84
2023/09/01 12:53:44;;;;;;;2.20;0.87;;;33.00;28.10;;;;;;5054594;28;20905;-84
2023/09/01 12:56:11;;;;;;;2.60;1.17;;;33.10;28.40;;;;;;5054803;28;20465;-84
2023/09/01 12:58:39;;;;;;;2.03;0.77;;;33.20;27.40;;;;;;5054591;28;20584;-84